sensor_id;sensor_type;location;lat;lon;timestamp;P1;durP1;ratioP1;P2;durP2;ratioP2
33475;SDS011;19814;48.224;11.422;2023-05-07T00:00:46;8.13;;;5.25;;
33475;SDS011;19814;48.224;11.422;2023-05-07T00:03:11;8.18;;;5.32;;
33475;SDS011;19814;48.224;11.422;2023-05-07T00:05:38;10.60;;;5.40;;
33475;SDS011;19814;48.224;11.422;2023-05-07T00:08:04;8.10;;;4.93;;
33475;SDS011;19814;48.224;11.422;2023-05-07T00:10:30;7.40;;;4.40;;
33475;SDS011;19814;48.224;11.422;2023-05-07T00:12:55;7.63;;;5.30;;
33475;SDS011;19814;48.224;11.422;2023-05-07T00:15:21;7.63;;;4.93;;
33475;SDS011;19814;48.224;11.422;2023-05-07T00:17:46;8.52;;;5.18;;
33475;SDS011;19814;48.224;11.422;2023-05-07T00:20:12;9.20;;;5.20;;
33475;SDS011;19814;48.224;11.422;2023-05-07T00:22:37;9.02;;;6.10;;
33475;SDS011;19814;48.224;11.422;2023-05-07T00:25:03;12.52;;;6.60;;
33475;SDS011;19814;48.224;11.422;2023-05-07T00:27:30;10.15;;;6.20;;
33475;SDS011;19814;48.224;11.422;2023-05-07T00:29:55;9.07;;;5.70;;
33475;SDS011;19814;48.224;11.422;2023-05-07T00:32:21;9.73;;;5.20;;
33475;SDS011;19814;48.224;11.422;2023-05-07T00:34:46;7.43;;;5.20;;
33475;SDS011;19814;48.224;11.422;2023-05-07T00:37:12;9.38;;;5.18;;
33475;SDS011;19814;48.224;11.422;2023-05-07T00:39:37;8.55;;;5.22;;
33475;SDS011;19814;48.224;11.422;2023-05-07T00:42:03;8.50;;;5.32;;
33475;SDS011;19814;48.224;11.422;2023-05-07T00:44:29;7.85;;;4.90;;
33475;SDS011;19814;48.224;11.422;2023-05-07T00:46:54;11.25;;;4.85;;
33475;SDS011;19814;48.224;11.422;2023-05-07T00:49:22;9.15;;;4.03;;
33475;SDS011;19814;48.224;11.422;2023-05-07T00:51:54;9.60;;;5.60;;
33475;SDS011;19814;48.224;11.422;2023-05-07T00:54:21;11.98;;;6.38;;
33475;SDS011;19814;48.224;11.422;2023-05-07T00:56:47;11.27;;;6.68;;
33475;SDS011;19814;48.224;11.422;2023-05-07T00:59:13;13.27;;;6.63;;
33475;SDS011;19814;48.224;11.422;2023-05-07T01:01:38;9.48;;;6.00;;
33475;SDS011;19814;48.224;11.422;2023-05-07T01:04:04;8.73;;;5.95;;
33475;SDS011;19814;48.224;11.422;2023-05-07T01:06:30;9.50;;;6.22;;
33475;SDS011;19814;48.224;11.422;2023-05-07T01:08:57;10.18;;;6.00;;
33475;SDS011;19814;48.224;11.422;2023-05-07T01:11:23;9.88;;;6.18;;
33475;SDS011;19814;48.224;11.422;2023-05-07T01:13:50;9.77;;;6.05;;
33475;SDS011;19814;48.224;11.422;2023-05-07T01:16:16;8.38;;;5.63;;
33475;SDS011;19814;48.224;11.422;2023-05-07T01:18:42;10.80;;;5.50;;
33475;SDS011;19814;48.224;11.422;2023-05-07T01:21:07;7.70;;;5.10;;
33475;SDS011;19814;48.224;11.422;2023-05-07T01:23:35;8.77;;;5.75;;
33475;SDS011;19814;48.224;11.422;2023-05-07T01:26:02;9.50;;;5.20;;
33475;SDS011;19814;48.224;11.422;2023-05-07T01:28:27;10.48;;;5.50;;
33475;SDS011;19814;48.224;11.422;2023-05-07T01:30:54;10.25;;;6.00;;
33475;SDS011;19814;48.224;11.422;2023-05-07T01:35:51;11.23;;;6.05;;
33475;SDS011;19814;48.224;11.422;2023-05-07T01:38:18;11.02;;;6.22;;
33475;SDS011;19814;48.224;11.422;2023-05-07T01:40:45;7.57;;;4.60;;
33475;SDS011;19814;48.224;11.422;2023-05-07T01:43:11;11.25;;;5.20;;
33475;SDS011;19814;48.224;11.422;2023-05-07T01:45:37;9.70;;;5.15;;
33475;SDS011;19814;48.224;11.422;2023-05-07T01:48:03;8.88;;;5.30;;
33475;SDS011;19814;48.224;11.422;2023-05-07T01:50:29;8.70;;;5.97;;
33475;SDS011;19814;48.224;11.422;2023-05-07T01:52:56;8.10;;;6.03;;
33475;SDS011;19814;48.224;11.422;2023-05-07T01:55:22;9.65;;;5.18;;
33475;SDS011;19814;48.224;11.422;2023-05-07T01:57:47;6.80;;;4.93;;
33475;SDS011;19814;48.224;11.422;2023-05-07T02:00:13;9.07;;;5.40;;
33475;SDS011;19814;48.224;11.422;2023-05-07T02:02:38;8.80;;;5.53;;
33475;SDS011;19814;48.224;11.422;2023-05-07T02:05:04;9.77;;;6.32;;
33475;SDS011;19814;48.224;11.422;2023-05-07T02:07:30;10.77;;;6.75;;
33475;SDS011;19814;48.224;11.422;2023-05-07T02:09:55;11.52;;;6.50;;
33475;SDS011;19814;48.224;11.422;2023-05-07T02:12:21;12.23;;;6.07;;
33475;SDS011;19814;48.224;11.422;2023-05-07T02:14:47;9.68;;;5.65;;
33475;SDS011;19814;48.224;11.422;2023-05-07T02:17:13;8.35;;;5.47;;
33475;SDS011;19814;48.224;11.422;2023-05-07T02:19:39;8.35;;;5.65;;
33475;SDS011;19814;48.224;11.422;2023-05-07T02:22:04;11.50;;;6.70;;
33475;SDS011;19814;48.224;11.422;2023-05-07T02:24:30;9.05;;;5.45;;
33475;SDS011;19814;48.224;11.422;2023-05-07T02:26:55;9.20;;;5.80;;
33475;SDS011;19814;48.224;11.422;2023-05-07T02:29:21;9.82;;;5.72;;
33475;SDS011;19814;48.224;11.422;2023-05-07T02:31:47;10.05;;;6.22;;
33475;SDS011;19814;48.224;11.422;2023-05-07T02:34:15;10.75;;;5.82;;
33475;SDS011;19814;48.224;11.422;2023-05-07T02:36:41;8.27;;;5.68;;
33475;SDS011;19814;48.224;11.422;2023-05-07T02:39:07;8.38;;;5.45;;
33475;SDS011;19814;48.224;11.422;2023-05-07T02:41:33;10.60;;;5.20;;
33475;SDS011;19814;48.224;11.422;2023-05-07T02:43:58;11.20;;;5.53;;
33475;SDS011;19814;48.224;11.422;2023-05-07T02:46:24;9.07;;;5.53;;
33475;SDS011;19814;48.224;11.422;2023-05-07T02:48:49;9.55;;;5.30;;
33475;SDS011;19814;48.224;11.422;2023-05-07T02:51:16;7.55;;;4.88;;
33475;SDS011;19814;48.224;11.422;2023-05-07T02:53:45;7.65;;;4.45;;
33475;SDS011;19814;48.224;11.422;2023-05-07T02:56:11;7.63;;;4.82;;
33475;SDS011;19814;48.224;11.422;2023-05-07T02:58:36;8.85;;;6.22;;
33475;SDS011;19814;48.224;11.422;2023-05-07T03:01:04;9.75;;;5.85;;
33475;SDS011;19814;48.224;11.422;2023-05-07T03:03:30;11.27;;;6.25;;
33475;SDS011;19814;48.224;11.422;2023-05-07T03:05:55;10.05;;;6.00;;
33475;SDS011;19814;48.224;11.422;2023-05-07T03:08:21;12.57;;;5.60;;
33475;SDS011;19814;48.224;11.422;2023-05-07T03:10:47;7.45;;;5.32;;
33475;SDS011;19814;48.224;11.422;2023-05-07T03:13:12;9.75;;;5.55;;
33475;SDS011;19814;48.224;11.422;2023-05-07T03:15:38;10.73;;;6.22;;
33475;SDS011;19814;48.224;11.422;2023-05-07T03:18:03;10.70;;;6.20;;
33475;SDS011;19814;48.224;11.422;2023-05-07T03:20:29;8.77;;;5.57;;
33475;SDS011;19814;48.224;11.422;2023-05-07T03:22:55;11.40;;;6.50;;
33475;SDS011;19814;48.224;11.422;2023-05-07T03:25:20;12.02;;;5.93;;
33475;SDS011;19814;48.224;11.422;2023-05-07T03:27:46;10.70;;;5.97;;
33475;SDS011;19814;48.224;11.422;2023-05-07T03:30:12;10.15;;;5.97;;
33475;SDS011;19814;48.224;11.422;2023-05-07T03:32:37;11.95;;;6.00;;
33475;SDS011;19814;48.224;11.422;2023-05-07T03:35:03;10.65;;;5.78;;
33475;SDS011;19814;48.224;11.422;2023-05-07T03:37:29;9.48;;;5.18;;
33475;SDS011;19814;48.224;11.422;2023-05-07T03:39:55;8.07;;;5.07;;
33475;SDS011;19814;48.224;11.422;2023-05-07T03:42:20;9.93;;;6.65;;
33475;SDS011;19814;48.224;11.422;2023-05-07T03:44:46;9.27;;;5.85;;
33475;SDS011;19814;48.224;11.422;2023-05-07T03:47:11;8.60;;;5.68;;
33475;SDS011;19814;48.224;11.422;2023-05-07T03:49:38;9.82;;;6.13;;
33475;SDS011;19814;48.224;11.422;2023-05-07T03:52:04;10.82;;;4.97;;
33475;SDS011;19814;48.224;11.422;2023-05-07T03:54:30;8.30;;;5.75;;
33475;SDS011;19814;48.224;11.422;2023-05-07T03:56:56;7.78;;;4.68;;
33475;SDS011;19814;48.224;11.422;2023-05-07T03:59:21;8.05;;;4.57;;
33475;SDS011;19814;48.224;11.422;2023-05-07T04:01:47;9.88;;;5.32;;
33475;SDS011;19814;48.224;11.422;2023-05-07T04:04:13;8.82;;;5.35;;
33475;SDS011;19814;48.224;11.422;2023-05-07T04:06:39;9.48;;;5.38;;
33475;SDS011;19814;48.224;11.422;2023-05-07T04:09:06;7.28;;;4.18;;
33475;SDS011;19814;48.224;11.422;2023-05-07T04:11:31;6.93;;;4.65;;
33475;SDS011;19814;48.224;11.422;2023-05-07T04:13:57;5.45;;;3.47;;
33475;SDS011;19814;48.224;11.422;2023-05-07T04:16:22;6.10;;;3.42;;
33475;SDS011;19814;48.224;11.422;2023-05-07T04:18:48;5.53;;;3.28;;
33475;SDS011;19814;48.224;11.422;2023-05-07T04:21:17;6.85;;;3.60;;
33475;SDS011;19814;48.224;11.422;2023-05-07T04:23:44;8.20;;;4.43;;
33475;SDS011;19814;48.224;11.422;2023-05-07T04:26:10;8.15;;;5.00;;
33475;SDS011;19814;48.224;11.422;2023-05-07T04:28:36;7.28;;;3.92;;
33475;SDS011;19814;48.224;11.422;2023-05-07T04:31:01;6.80;;;3.20;;
33475;SDS011;19814;48.224;11.422;2023-05-07T04:33:27;6.32;;;3.63;;
33475;SDS011;19814;48.224;11.422;2023-05-07T04:35:53;5.65;;;3.83;;
33475;SDS011;19814;48.224;11.422;2023-05-07T04:38:18;6.55;;;4.25;;
33475;SDS011;19814;48.224;11.422;2023-05-07T04:40:44;7.22;;;4.05;;
33475;SDS011;19814;48.224;11.422;2023-05-07T04:43:09;9.52;;;5.20;;
33475;SDS011;19814;48.224;11.422;2023-05-07T04:45:35;9.00;;;5.28;;
33475;SDS011;19814;48.224;11.422;2023-05-07T04:48:01;9.05;;;5.78;;
33475;SDS011;19814;48.224;11.422;2023-05-07T04:50:27;8.38;;;6.03;;
33475;SDS011;19814;48.224;11.422;2023-05-07T04:52:53;8.90;;;5.18;;
33475;SDS011;19814;48.224;11.422;2023-05-07T04:55:18;7.55;;;4.55;;
33475;SDS011;19814;48.224;11.422;2023-05-07T04:57:44;7.10;;;4.70;;
33475;SDS011;19814;48.224;11.422;2023-05-07T05:00:10;7.72;;;4.65;;
33475;SDS011;19814;48.224;11.422;2023-05-07T05:02:39;9.88;;;4.93;;
33475;SDS011;19814;48.224;11.422;2023-05-07T05:05:05;7.97;;;5.00;;
33475;SDS011;19814;48.224;11.422;2023-05-07T05:07:31;8.35;;;5.03;;
33475;SDS011;19814;48.224;11.422;2023-05-07T05:09:57;7.40;;;5.32;;
33475;SDS011;19814;48.224;11.422;2023-05-07T05:12:22;8.55;;;5.68;;
33475;SDS011;19814;48.224;11.422;2023-05-07T05:14:48;8.52;;;5.75;;
33475;SDS011;19814;48.224;11.422;2023-05-07T05:17:13;8.23;;;5.70;;
33475;SDS011;19814;48.224;11.422;2023-05-07T05:19:39;9.25;;;6.15;;
33475;SDS011;19814;48.224;11.422;2023-05-07T05:22:05;10.30;;;5.90;;
33475;SDS011;19814;48.224;11.422;2023-05-07T05:24:30;8.57;;;6.35;;
33475;SDS011;19814;48.224;11.422;2023-05-07T05:26:56;8.13;;;6.00;;
33475;SDS011;19814;48.224;11.422;2023-05-07T05:29:22;11.18;;;6.95;;
33475;SDS011;19814;48.224;11.422;2023-05-07T05:31:47;10.38;;;6.30;;
33475;SDS011;19814;48.224;11.422;2023-05-07T05:34:13;9.60;;;7.03;;
33475;SDS011;19814;48.224;11.422;2023-05-07T05:36:39;12.32;;;6.53;;
33475;SDS011;19814;48.224;11.422;2023-05-07T05:39:04;10.60;;;6.78;;
33475;SDS011;19814;48.224;11.422;2023-05-07T05:41:30;11.73;;;7.00;;
33475;SDS011;19814;48.224;11.422;2023-05-07T05:43:56;10.23;;;6.65;;
33475;SDS011;19814;48.224;11.422;2023-05-07T05:46:22;8.82;;;5.93;;
33475;SDS011;19814;48.224;11.422;2023-05-07T05:48:47;9.35;;;5.95;;
33475;SDS011;19814;48.224;11.422;2023-05-07T05:51:13;11.13;;;7.22;;
33475;SDS011;19814;48.224;11.422;2023-05-07T05:53:38;10.82;;;6.93;;
33475;SDS011;19814;48.224;11.422;2023-05-07T05:56:04;11.38;;;6.68;;
33475;SDS011;19814;48.224;11.422;2023-05-07T05:58:30;8.80;;;6.45;;
33475;SDS011;19814;48.224;11.422;2023-05-07T06:00:55;10.80;;;7.32;;
33475;SDS011;19814;48.224;11.422;2023-05-07T06:03:21;11.18;;;6.60;;
33475;SDS011;19814;48.224;11.422;2023-05-07T06:05:47;10.95;;;7.28;;
33475;SDS011;19814;48.224;11.422;2023-05-07T06:08:12;11.40;;;6.72;;
33475;SDS011;19814;48.224;11.422;2023-05-07T06:10:38;9.18;;;6.30;;
33475;SDS011;19814;48.224;11.422;2023-05-07T06:13:04;9.82;;;6.47;;
33475;SDS011;19814;48.224;11.422;2023-05-07T06:15:30;10.88;;;6.75;;
33475;SDS011;19814;48.224;11.422;2023-05-07T06:17:55;11.45;;;7.22;;
33475;SDS011;19814;48.224;11.422;2023-05-07T06:20:22;9.93;;;5.82;;
33475;SDS011;19814;48.224;11.422;2023-05-07T06:22:48;8.23;;;5.97;;
33475;SDS011;19814;48.224;11.422;2023-05-07T06:25:13;9.77;;;6.55;;
33475;SDS011;19814;48.224;11.422;2023-05-07T06:27:39;7.80;;;5.95;;
33475;SDS011;19814;48.224;11.422;2023-05-07T06:30:05;8.98;;;5.72;;
33475;SDS011;19814;48.224;11.422;2023-05-07T06:32:31;9.00;;;6.05;;
33475;SDS011;19814;48.224;11.422;2023-05-07T06:34:57;8.65;;;6.47;;
33475;SDS011;19814;48.224;11.422;2023-05-07T06:37:23;8.30;;;5.65;;
33475;SDS011;19814;48.224;11.422;2023-05-07T06:39:48;9.32;;;6.03;;
33475;SDS011;19814;48.224;11.422;2023-05-07T06:42:14;7.97;;;5.72;;
33475;SDS011;19814;48.224;11.422;2023-05-07T06:44:39;7.65;;;5.57;;
33475;SDS011;19814;48.224;11.422;2023-05-07T06:47:05;10.32;;;6.05;;
33475;SDS011;19814;48.224;11.422;2023-05-07T06:49:30;7.60;;;5.20;;
33475;SDS011;19814;48.224;11.422;2023-05-07T06:51:56;7.40;;;5.47;;
33475;SDS011;19814;48.224;11.422;2023-05-07T06:54:22;7.53;;;5.60;;
33475;SDS011;19814;48.224;11.422;2023-05-07T06:56:47;7.60;;;4.85;;
33475;SDS011;19814;48.224;11.422;2023-05-07T06:59:13;7.43;;;5.20;;
33475;SDS011;19814;48.224;11.422;2023-05-07T07:01:39;7.45;;;4.80;;
33475;SDS011;19814;48.224;11.422;2023-05-07T07:04:05;11.77;;;5.05;;
33475;SDS011;19814;48.224;11.422;2023-05-07T07:06:30;8.10;;;4.60;;
33475;SDS011;19814;48.224;11.422;2023-05-07T07:08:57;6.70;;;4.55;;
33475;SDS011;19814;48.224;11.422;2023-05-07T07:11:23;5.70;;;4.10;;
33475;SDS011;19814;48.224;11.422;2023-05-07T07:13:48;6.35;;;4.47;;
33475;SDS011;19814;48.224;11.422;2023-05-07T07:16:15;6.60;;;4.30;;
33475;SDS011;19814;48.224;11.422;2023-05-07T07:18:41;6.70;;;4.28;;
33475;SDS011;19814;48.224;11.422;2023-05-07T07:21:06;6.32;;;4.13;;
33475;SDS011;19814;48.224;11.422;2023-05-07T07:23:32;6.13;;;4.13;;
33475;SDS011;19814;48.224;11.422;2023-05-07T07:25:58;6.18;;;4.28;;
33475;SDS011;19814;48.224;11.422;2023-05-07T07:28:23;5.68;;;3.65;;
33475;SDS011;19814;48.224;11.422;2023-05-07T07:30:49;5.93;;;3.35;;
33475;SDS011;19814;48.224;11.422;2023-05-07T07:33:14;5.38;;;3.85;;
33475;SDS011;19814;48.224;11.422;2023-05-07T07:35:40;7.63;;;3.83;;
33475;SDS011;19814;48.224;11.422;2023-05-07T07:38:06;5.25;;;3.30;;
33475;SDS011;19814;48.224;11.422;2023-05-07T07:40:31;5.82;;;3.85;;
33475;SDS011;19814;48.224;11.422;2023-05-07T07:42:59;6.22;;;3.80;;
33475;SDS011;19814;48.224;11.422;2023-05-07T07:45:26;4.60;;;3.30;;
33475;SDS011;19814;48.224;11.422;2023-05-07T07:47:51;4.35;;;2.70;;
33475;SDS011;19814;48.224;11.422;2023-05-07T07:50:17;7.60;;;3.22;;
33475;SDS011;19814;48.224;11.422;2023-05-07T07:52:43;4.53;;;2.95;;
33475;SDS011;19814;48.224;11.422;2023-05-07T07:55:08;6.95;;;2.60;;
33475;SDS011;19814;48.224;11.422;2023-05-07T07:57:34;7.88;;;2.88;;
33475;SDS011;19814;48.224;11.422;2023-05-07T08:00:00;4.43;;;2.65;;
33475;SDS011;19814;48.224;11.422;2023-05-07T08:02:25;4.25;;;2.83;;
33475;SDS011;19814;48.224;11.422;2023-05-07T08:04:51;4.30;;;2.80;;
33475;SDS011;19814;48.224;11.422;2023-05-07T08:07:16;3.75;;;2.20;;
33475;SDS011;19814;48.224;11.422;2023-05-07T08:09:45;4.70;;;3.05;;
33475;SDS011;19814;48.224;11.422;2023-05-07T08:12:11;3.05;;;2.28;;
33475;SDS011;19814;48.224;11.422;2023-05-07T08:14:37;4.40;;;2.58;;
33475;SDS011;19814;48.224;11.422;2023-05-07T08:17:03;4.75;;;3.00;;
33475;SDS011;19814;48.224;11.422;2023-05-07T08:19:28;4.05;;;2.75;;
33475;SDS011;19814;48.224;11.422;2023-05-07T08:21:54;3.75;;;2.72;;
33475;SDS011;19814;48.224;11.422;2023-05-07T08:24:20;5.10;;;2.92;;
33475;SDS011;19814;48.224;11.422;2023-05-07T08:26:46;4.13;;;2.42;;
33475;SDS011;19814;48.224;11.422;2023-05-07T08:29:15;3.88;;;2.60;;
33475;SDS011;19814;48.224;11.422;2023-05-07T08:31:44;5.22;;;2.83;;
33475;SDS011;19814;48.224;11.422;2023-05-07T08:34:09;4.57;;;3.00;;
33475;SDS011;19814;48.224;11.422;2023-05-07T08:36:35;4.82;;;3.20;;
33475;SDS011;19814;48.224;11.422;2023-05-07T08:39:00;4.65;;;3.08;;
33475;SDS011;19814;48.224;11.422;2023-05-07T08:41:26;10.35;;;3.35;;
33475;SDS011;19814;48.224;11.422;2023-05-07T08:43:51;4.82;;;2.95;;
33475;SDS011;19814;48.224;11.422;2023-05-07T08:46:19;4.03;;;2.47;;
33475;SDS011;19814;48.224;11.422;2023-05-07T08:48:49;5.95;;;3.17;;
33475;SDS011;19814;48.224;11.422;2023-05-07T08:51:16;4.78;;;3.35;;
33475;SDS011;19814;48.224;11.422;2023-05-07T08:53:46;3.97;;;2.90;;
33475;SDS011;19814;48.224;11.422;2023-05-07T08:56:13;4.68;;;3.40;;
33475;SDS011;19814;48.224;11.422;2023-05-07T08:58:43;8.02;;;2.97;;
33475;SDS011;19814;48.224;11.422;2023-05-07T09:01:10;5.30;;;3.17;;
33475;SDS011;19814;48.224;11.422;2023-05-07T09:03:39;5.20;;;2.83;;
33475;SDS011;19814;48.224;11.422;2023-05-07T09:06:05;3.95;;;2.95;;
33475;SDS011;19814;48.224;11.422;2023-05-07T09:08:32;3.67;;;2.67;;
33475;SDS011;19814;48.224;11.422;2023-05-07T09:10:58;4.00;;;2.67;;
33475;SDS011;19814;48.224;11.422;2023-05-07T09:13:24;3.72;;;2.60;;
33475;SDS011;19814;48.224;11.422;2023-05-07T09:15:51;4.28;;;2.38;;
33475;SDS011;19814;48.224;11.422;2023-05-07T09:18:17;3.75;;;2.25;;
33475;SDS011;19814;48.224;11.422;2023-05-07T09:20:42;4.30;;;2.42;;
33475;SDS011;19814;48.224;11.422;2023-05-07T09:23:08;3.05;;;2.10;;
33475;SDS011;19814;48.224;11.422;2023-05-07T09:25:34;3.75;;;2.30;;
33475;SDS011;19814;48.224;11.422;2023-05-07T09:28:01;3.72;;;2.55;;
33475;SDS011;19814;48.224;11.422;2023-05-07T09:30:30;4.72;;;2.47;;
33475;SDS011;19814;48.224;11.422;2023-05-07T09:35:25;3.60;;;2.55;;
33475;SDS011;19814;48.224;11.422;2023-05-07T09:37:55;3.63;;;2.20;;
33475;SDS011;19814;48.224;11.422;2023-05-07T09:40:26;3.17;;;2.17;;
33475;SDS011;19814;48.224;11.422;2023-05-07T09:42:52;2.13;;;1.90;;
33475;SDS011;19814;48.224;11.422;2023-05-07T09:45:25;3.35;;;2.67;;
33475;SDS011;19814;48.224;11.422;2023-05-07T09:47:54;4.07;;;3.05;;
33475;SDS011;19814;48.224;11.422;2023-05-07T09:50:30;3.95;;;2.85;;
33475;SDS011;19814;48.224;11.422;2023-05-07T09:53:01;3.35;;;2.55;;
33475;SDS011;19814;48.224;11.422;2023-05-07T09:55:27;3.88;;;2.58;;
33475;SDS011;19814;48.224;11.422;2023-05-07T09:57:53;4.43;;;2.70;;
33475;SDS011;19814;48.224;11.422;2023-05-07T10:00:20;4.15;;;2.72;;
33475;SDS011;19814;48.224;11.422;2023-05-07T10:02:50;3.90;;;2.50;;
33475;SDS011;19814;48.224;11.422;2023-05-07T10:05:18;3.35;;;1.90;;
33475;SDS011;19814;48.224;11.422;2023-05-07T10:07:47;2.70;;;1.95;;
33475;SDS011;19814;48.224;11.422;2023-05-07T10:10:14;3.88;;;2.00;;
33475;SDS011;19814;48.224;11.422;2023-05-07T10:12:40;2.30;;;1.65;;
33475;SDS011;19814;48.224;11.422;2023-05-07T10:15:06;1.20;;;0.95;;
33475;SDS011;19814;48.224;11.422;2023-05-07T10:17:36;2.25;;;1.15;;
33475;SDS011;19814;48.224;11.422;2023-05-07T10:20:03;2.55;;;1.60;;
33475;SDS011;19814;48.224;11.422;2023-05-07T10:22:31;2.22;;;1.30;;
33475;SDS011;19814;48.224;11.422;2023-05-07T10:25:03;1.95;;;1.10;;
33475;SDS011;19814;48.224;11.422;2023-05-07T10:27:33;2.33;;;1.50;;
33475;SDS011;19814;48.224;11.422;2023-05-07T10:30:07;2.05;;;1.55;;
33475;SDS011;19814;48.224;11.422;2023-05-07T10:32:43;3.05;;;2.00;;
33475;SDS011;19814;48.224;11.422;2023-05-07T10:35:14;2.25;;;1.55;;
33475;SDS011;19814;48.224;11.422;2023-05-07T10:37:45;2.30;;;1.67;;
33475;SDS011;19814;48.224;11.422;2023-05-07T10:40:11;1.77;;;1.40;;
33475;SDS011;19814;48.224;11.422;2023-05-07T10:42:38;3.13;;;1.70;;
33475;SDS011;19814;48.224;11.422;2023-05-07T10:45:13;2.78;;;1.83;;
33475;SDS011;19814;48.224;11.422;2023-05-07T10:50:42;2.38;;;1.70;;
33475;SDS011;19814;48.224;11.422;2023-05-07T10:55:44;3.22;;;2.03;;
33475;SDS011;19814;48.224;11.422;2023-05-07T11:00:48;4.65;;;2.03;;
33475;SDS011;19814;48.224;11.422;2023-05-07T11:03:14;2.67;;;1.80;;
33475;SDS011;19814;48.224;11.422;2023-05-07T11:05:40;3.15;;;1.90;;
33475;SDS011;19814;48.224;11.422;2023-05-07T11:08:08;6.57;;;2.30;;
33475;SDS011;19814;48.224;11.422;2023-05-07T11:10:53;2.95;;;1.90;;
33475;SDS011;19814;48.224;11.422;2023-05-07T11:19:03;2.63;;;1.73;;
33475;SDS011;19814;48.224;11.422;2023-05-07T11:24:00;2.63;;;1.63;;
33475;SDS011;19814;48.224;11.422;2023-05-07T11:26:28;2.65;;;1.75;;
33475;SDS011;19814;48.224;11.422;2023-05-07T11:28:56;2.50;;;1.83;;
33475;SDS011;19814;48.224;11.422;2023-05-07T11:31:23;2.40;;;1.70;;
33475;SDS011;19814;48.224;11.422;2023-05-07T11:33:51;2.53;;;1.48;;
33475;SDS011;19814;48.224;11.422;2023-05-07T11:36:17;3.47;;;1.92;;
33475;SDS011;19814;48.224;11.422;2023-05-07T11:38:44;4.78;;;1.60;;
33475;SDS011;19814;48.224;11.422;2023-05-07T11:41:09;2.17;;;1.42;;
33475;SDS011;19814;48.224;11.422;2023-05-07T11:43:35;1.75;;;1.50;;
33475;SDS011;19814;48.224;11.422;2023-05-07T11:46:10;1.63;;;1.27;;
33475;SDS011;19814;48.224;11.422;2023-05-07T11:48:37;4.90;;;3.58;;
33475;SDS011;19814;48.224;11.422;2023-05-07T11:51:04;6.22;;;3.40;;
33475;SDS011;19814;48.224;11.422;2023-05-07T11:53:35;3.60;;;1.98;;
33475;SDS011;19814;48.224;11.422;2023-05-07T11:56:12;2.38;;;1.33;;
33475;SDS011;19814;48.224;11.422;2023-05-07T11:58:39;1.65;;;1.40;;
33475;SDS011;19814;48.224;11.422;2023-05-07T12:01:07;3.15;;;1.55;;
33475;SDS011;19814;48.224;11.422;2023-05-07T12:03:34;5.80;;;2.23;;
33475;SDS011;19814;48.224;11.422;2023-05-07T12:06:02;2.33;;;1.58;;
33475;SDS011;19814;48.224;11.422;2023-05-07T12:08:30;1.80;;;1.38;;
33475;SDS011;19814;48.224;11.422;2023-05-07T12:10:55;2.90;;;1.45;;
33475;SDS011;19814;48.224;11.422;2023-05-07T12:13:22;2.95;;;1.90;;
33475;SDS011;19814;48.224;11.422;2023-05-07T12:15:51;4.30;;;2.10;;
33475;SDS011;19814;48.224;11.422;2023-05-07T12:18:18;4.45;;;2.10;;
33475;SDS011;19814;48.224;11.422;2023-05-07T12:20:44;4.80;;;1.95;;
33475;SDS011;19814;48.224;11.422;2023-05-07T12:23:10;2.30;;;1.55;;
33475;SDS011;19814;48.224;11.422;2023-05-07T12:25:37;2.97;;;1.63;;
33475;SDS011;19814;48.224;11.422;2023-05-07T12:28:03;3.05;;;1.88;;
33475;SDS011;19814;48.224;11.422;2023-05-07T12:30:30;2.53;;;1.90;;
33475;SDS011;19814;48.224;11.422;2023-05-07T12:33:03;4.93;;;1.98;;
33475;SDS011;19814;48.224;11.422;2023-05-07T12:35:32;2.15;;;1.48;;
33475;SDS011;19814;48.224;11.422;2023-05-07T12:38:04;2.38;;;1.67;;
33475;SDS011;19814;48.224;11.422;2023-05-07T12:40:37;2.23;;;1.70;;
33475;SDS011;19814;48.224;11.422;2023-05-07T12:43:06;3.75;;;1.50;;
33475;SDS011;19814;48.224;11.422;2023-05-07T12:45:38;2.20;;;1.65;;
33475;SDS011;19814;48.224;11.422;2023-05-07T12:48:04;6.10;;;2.00;;
33475;SDS011;19814;48.224;11.422;2023-05-07T12:50:31;1.95;;;1.33;;
33475;SDS011;19814;48.224;11.422;2023-05-07T12:52:58;2.47;;;1.67;;
33475;SDS011;19814;48.224;11.422;2023-05-07T12:55:24;2.25;;;1.30;;
33475;SDS011;19814;48.224;11.422;2023-05-07T12:57:49;2.42;;;1.40;;
33475;SDS011;19814;48.224;11.422;2023-05-07T13:00:16;2.08;;;1.40;;
33475;SDS011;19814;48.224;11.422;2023-05-07T13:02:42;3.08;;;1.65;;
33475;SDS011;19814;48.224;11.422;2023-05-07T13:05:11;2.40;;;1.50;;
33475;SDS011;19814;48.224;11.422;2023-05-07T13:07:37;2.42;;;1.38;;
33475;SDS011;19814;48.224;11.422;2023-05-07T13:10:03;1.80;;;1.33;;
33475;SDS011;19814;48.224;11.422;2023-05-07T13:12:29;2.28;;;1.25;;
33475;SDS011;19814;48.224;11.422;2023-05-07T13:14:54;4.57;;;1.80;;
33475;SDS011;19814;48.224;11.422;2023-05-07T13:17:20;1.75;;;1.30;;
33475;SDS011;19814;48.224;11.422;2023-05-07T13:19:46;3.22;;;1.35;;
33475;SDS011;19814;48.224;11.422;2023-05-07T13:22:11;2.13;;;1.27;;
33475;SDS011;19814;48.224;11.422;2023-05-07T13:24:37;2.22;;;1.60;;
33475;SDS011;19814;48.224;11.422;2023-05-07T13:27:03;2.30;;;1.30;;
33475;SDS011;19814;48.224;11.422;2023-05-07T13:29:29;2.42;;;1.40;;
33475;SDS011;19814;48.224;11.422;2023-05-07T13:31:58;3.13;;;1.40;;
33475;SDS011;19814;48.224;11.422;2023-05-07T13:34:27;2.42;;;1.50;;
33475;SDS011;19814;48.224;11.422;2023-05-07T13:37:24;2.80;;;1.42;;
33475;SDS011;19814;48.224;11.422;2023-05-07T13:39:50;2.63;;;1.50;;
33475;SDS011;19814;48.224;11.422;2023-05-07T13:42:16;2.92;;;1.40;;
33475;SDS011;19814;48.224;11.422;2023-05-07T13:44:51;2.10;;;1.40;;
33475;SDS011;19814;48.224;11.422;2023-05-07T13:47:19;3.47;;;1.70;;
33475;SDS011;19814;48.224;11.422;2023-05-07T13:49:44;2.45;;;1.77;;
33475;SDS011;19814;48.224;11.422;2023-05-07T13:52:10;3.53;;;1.60;;
33475;SDS011;19814;48.224;11.422;2023-05-07T13:54:36;2.60;;;1.77;;
33475;SDS011;19814;48.224;11.422;2023-05-07T13:57:01;3.28;;;1.63;;
33475;SDS011;19814;48.224;11.422;2023-05-07T13:59:27;3.00;;;1.70;;
33475;SDS011;19814;48.224;11.422;2023-05-07T14:01:52;2.85;;;1.70;;
33475;SDS011;19814;48.224;11.422;2023-05-07T14:04:19;3.20;;;1.70;;
33475;SDS011;19814;48.224;11.422;2023-05-07T14:06:45;4.63;;;1.73;;
33475;SDS011;19814;48.224;11.422;2023-05-07T14:09:11;4.40;;;1.63;;
33475;SDS011;19814;48.224;11.422;2023-05-07T14:11:38;1.90;;;1.35;;
33475;SDS011;19814;48.224;11.422;2023-05-07T14:14:04;3.67;;;1.85;;
33475;SDS011;19814;48.224;11.422;2023-05-07T14:16:30;2.50;;;1.60;;
33475;SDS011;19814;48.224;11.422;2023-05-07T14:18:56;3.33;;;1.63;;
33475;SDS011;19814;48.224;11.422;2023-05-07T14:21:21;3.03;;;1.50;;
33475;SDS011;19814;48.224;11.422;2023-05-07T14:23:47;4.55;;;1.88;;
33475;SDS011;19814;48.224;11.422;2023-05-07T14:26:13;3.60;;;1.77;;
33475;SDS011;19814;48.224;11.422;2023-05-07T14:28:38;3.35;;;1.70;;
33475;SDS011;19814;48.224;11.422;2023-05-07T14:31:04;2.83;;;1.60;;
33475;SDS011;19814;48.224;11.422;2023-05-07T14:33:31;3.60;;;1.58;;
33475;SDS011;19814;48.224;11.422;2023-05-07T14:35:56;3.17;;;1.70;;
33475;SDS011;19814;48.224;11.422;2023-05-07T14:38:22;4.63;;;1.65;;
33475;SDS011;19814;48.224;11.422;2023-05-07T14:40:47;2.55;;;1.55;;
33475;SDS011;19814;48.224;11.422;2023-05-07T14:43:13;2.25;;;1.60;;
33475;SDS011;19814;48.224;11.422;2023-05-07T14:45:39;3.60;;;1.70;;
33475;SDS011;19814;48.224;11.422;2023-05-07T14:48:05;3.58;;;1.90;;
33475;SDS011;19814;48.224;11.422;2023-05-07T14:50:30;3.22;;;1.75;;